createdAt,value
2022-12-03T00:01:35.953Z,86.78
2022-12-03T00:04:03.759Z,86.76
2022-12-03T00:06:34.472Z,86.70
2022-12-03T00:09:02.680Z,86.61
2022-12-03T00:11:30.197Z,86.66
2022-12-03T00:13:58.258Z,86.61
2022-12-03T00:16:25.726Z,86.58
2022-12-03T00:18:53.167Z,86.53
2022-12-03T00:21:20.672Z,86.42
2022-12-03T00:23:48.277Z,86.45
2022-12-03T00:26:15.771Z,86.44
2022-12-03T00:28:43.431Z,86.28
2022-12-03T00:31:11.047Z,86.33
2022-12-03T00:33:38.468Z,86.44
2022-12-03T00:36:05.833Z,86.32
2022-12-03T00:38:33.568Z,86.11
2022-12-03T00:41:01.365Z,86.39
2022-12-03T00:43:29.073Z,86.25
2022-12-03T00:45:56.713Z,86.23
2022-12-03T00:48:24.326Z,86.02
2022-12-03T00:50:51.864Z,86.07
2022-12-03T00:53:19.443Z,86.11
2022-12-03T00:55:47.115Z,86.06
2022-12-03T00:58:14.670Z,86.11
2022-12-03T01:00:42.445Z,86.10
2022-12-03T01:03:10.126Z,86.11
2022-12-03T01:05:37.611Z,86.35
2022-12-03T01:08:05.081Z,86.37
2022-12-03T01:10:32.544Z,86.33
2022-12-03T01:13:00.067Z,86.24
2022-12-03T01:15:27.729Z,86.16
2022-12-03T01:17:55.422Z,86.27
2022-12-03T01:20:22.999Z,86.13
2022-12-03T01:22:50.501Z,86.17
2022-12-03T01:25:18.273Z,86.12
2022-12-03T01:27:45.960Z,86.18
2022-12-03T01:30:13.294Z,86.01
2022-12-03T01:32:41.308Z,86.11
2022-12-03T01:35:08.796Z,86.14
2022-12-03T01:37:36.673Z,86.25
2022-12-03T01:40:04.261Z,86.11
2022-12-03T01:42:31.985Z,86.21
2022-12-03T01:44:59.361Z,86.30
2022-12-03T01:47:27.303Z,86.19
2022-12-03T01:49:54.933Z,86.13
2022-12-03T01:52:22.637Z,86.02
2022-12-03T01:54:50.418Z,85.95
2022-12-03T01:57:18.084Z,86.04
2022-12-03T01:59:45.869Z,86.07
2022-12-03T02:02:13.361Z,86.07
2022-12-03T02:04:40.977Z,86.03
2022-12-03T02:07:08.479Z,85.96
2022-12-03T02:09:35.895Z,85.75
2022-12-03T02:12:03.257Z,85.76
2022-12-03T02:14:30.786Z,85.65
2022-12-03T02:16:58.210Z,85.73
2022-12-03T02:19:25.877Z,85.90
2022-12-03T02:21:53.421Z,86.03
2022-12-03T02:24:21.066Z,86.14
2022-12-03T02:26:48.492Z,86.02
2022-12-03T02:29:15.935Z,86.06
2022-12-03T02:31:43.529Z,86.00
2022-12-03T02:34:11.221Z,86.00
2022-12-03T02:36:38.799Z,86.07
2022-12-03T02:39:06.255Z,85.99
2022-12-03T02:41:33.734Z,86.13
2022-12-03T02:44:01.166Z,86.04
2022-12-03T02:46:28.614Z,86.02
2022-12-03T02:48:56.032Z,85.90
2022-12-03T02:51:23.760Z,85.91
2022-12-03T02:53:51.504Z,85.88
2022-12-03T02:56:19.050Z,85.94
2022-12-03T02:58:46.498Z,86.04
2022-12-03T03:01:14.354Z,85.96
2022-12-03T03:03:42.148Z,86.12
2022-12-03T03:06:09.501Z,85.96
2022-12-03T03:08:37.059Z,85.93
2022-12-03T03:11:04.490Z,85.80
2022-12-03T03:13:32.147Z,85.77
2022-12-03T03:15:59.529Z,85.98
2022-12-03T03:18:27.087Z,85.91
2022-12-03T03:20:54.907Z,85.88
2022-12-03T03:23:22.415Z,85.85
2022-12-03T03:25:50.263Z,85.89
2022-12-03T03:28:17.740Z,85.78
2022-12-03T03:30:45.185Z,85.77
2022-12-03T03:33:12.517Z,85.76
2022-12-03T03:35:40.036Z,85.71
2022-12-03T03:38:07.503Z,86.10
2022-12-03T03:40:35.255Z,85.93
2022-12-03T03:43:02.621Z,85.83
2022-12-03T03:45:30.202Z,85.64
2022-12-03T03:47:57.785Z,85.71
2022-12-03T03:50:25.313Z,85.67
2022-12-03T03:52:52.975Z,85.60
2022-12-03T03:55:20.536Z,85.53
2022-12-03T03:57:48.111Z,85.40
2022-12-03T04:00:15.749Z,85.53
2022-12-03T04:02:43.213Z,85.71
2022-12-03T04:05:11.020Z,85.61
2022-12-03T04:07:38.758Z,85.73
2022-12-03T04:10:06.460Z,85.60
2022-12-03T04:12:33.963Z,85.57
2022-12-03T04:15:01.626Z,85.49
2022-12-03T04:17:29.331Z,85.45
2022-12-03T04:19:56.833Z,85.66
2022-12-03T04:22:24.219Z,85.85
2022-12-03T04:24:51.947Z,85.74
2022-12-03T04:27:20.160Z,85.71
2022-12-03T04:29:47.755Z,85.71
2022-12-03T04:32:15.241Z,85.87
2022-12-03T04:34:42.751Z,85.86
2022-12-03T04:37:10.809Z,85.83
2022-12-03T04:39:38.194Z,85.96
2022-12-03T04:42:05.569Z,85.78
2022-12-03T04:44:33.308Z,85.89
2022-12-03T04:47:00.716Z,86.02
2022-12-03T04:49:28.156Z,86.07
2022-12-03T04:51:55.727Z,86.11
2022-12-03T04:54:23.470Z,86.10
2022-12-03T04:56:51.115Z,86.22
2022-12-03T04:59:18.553Z,86.25
2022-12-03T05:01:46.130Z,86.30
2022-12-03T05:04:13.603Z,86.34
2022-12-03T05:06:41.270Z,86.55
2022-12-03T05:09:08.598Z,86.47
2022-12-03T05:11:36.283Z,86.52
2022-12-03T05:14:03.907Z,86.60
2022-12-03T05:16:31.311Z,86.61
2022-12-03T05:18:58.863Z,86.67
2022-12-03T05:21:26.395Z,86.60
2022-12-03T05:23:54.102Z,86.63
2022-12-03T05:26:21.746Z,86.66
2022-12-03T05:28:49.328Z,86.70
2022-12-03T05:31:16.951Z,86.78
2022-12-03T05:33:44.736Z,86.83
2022-12-03T05:36:12.195Z,87.01
2022-12-03T05:38:39.884Z,87.01
2022-12-03T05:41:07.472Z,87.20
2022-12-03T05:43:35.320Z,87.15
2022-12-03T05:46:03.138Z,87.28
2022-12-03T05:48:30.910Z,87.32
2022-12-03T05:50:58.634Z,87.11
2022-12-03T05:53:26.297Z,87.29
2022-12-03T05:55:53.678Z,87.29
2022-12-03T05:58:21.042Z,87.39
2022-12-03T06:00:48.565Z,87.40
2022-12-03T06:03:16.160Z,87.51
2022-12-03T06:05:43.836Z,87.36
2022-12-03T06:08:11.270Z,87.43
2022-12-03T06:10:38.795Z,87.48
2022-12-03T06:13:06.561Z,87.61
2022-12-03T06:15:38.758Z,87.91
2022-12-03T06:18:09.398Z,88.27
2022-12-03T06:20:36.782Z,88.32
2022-12-03T06:23:04.360Z,88.37
2022-12-03T06:25:31.922Z,88.37
2022-12-03T06:27:59.647Z,88.30
2022-12-03T06:30:27.044Z,88.32
2022-12-03T06:32:54.523Z,88.44
2022-12-03T06:35:21.916Z,88.65
2022-12-03T06:37:49.564Z,88.56
2022-12-03T06:40:16.941Z,88.57
2022-12-03T06:42:44.596Z,88.54
2022-12-03T06:45:11.959Z,88.60
2022-12-03T06:47:39.392Z,88.82
2022-12-03T06:50:06.973Z,88.69
2022-12-03T06:52:34.454Z,88.79
2022-12-03T06:55:01.833Z,88.78
2022-12-03T06:57:29.547Z,88.92
2022-12-03T06:59:57.358Z,88.86
2022-12-03T07:02:24.889Z,88.68
2022-12-03T07:04:52.625Z,88.76
2022-12-03T07:07:20.406Z,88.85
2022-12-03T07:09:47.991Z,88.85
2022-12-03T07:12:15.566Z,88.86
2022-12-03T07:14:43.054Z,88.68
2022-12-03T07:17:10.483Z,88.63
2022-12-03T07:19:38.018Z,88.78
2022-12-03T07:22:05.705Z,88.95
2022-12-03T07:24:33.044Z,89.05
2022-12-03T07:27:00.394Z,88.94
2022-12-03T07:29:27.854Z,89.10
2022-12-03T07:31:55.392Z,89.03
2022-12-03T07:34:22.934Z,89.04
2022-12-03T07:36:50.735Z,89.08
2022-12-03T07:39:18.103Z,89.21
2022-12-03T07:41:46.138Z,89.39
2022-12-03T07:44:14.745Z,89.39
2022-12-03T07:46:42.573Z,89.26
2022-12-03T07:49:10.391Z,89.21
2022-12-03T07:51:38.024Z,89.09
2022-12-03T07:54:05.482Z,88.94
2022-12-03T07:56:32.845Z,88.76
2022-12-03T07:59:00.601Z,88.80
2022-12-03T08:01:28.125Z,88.68
2022-12-03T08:03:55.539Z,88.66
2022-12-03T08:06:23.333Z,88.63
2022-12-03T08:08:50.757Z,88.61
2022-12-03T08:11:18.511Z,88.53
2022-12-03T08:13:46.351Z,88.61
2022-12-03T08:16:14.060Z,88.55
2022-12-03T08:18:42.144Z,88.56
2022-12-03T08:21:09.537Z,88.40
2022-12-03T08:23:37.182Z,88.37
2022-12-03T08:26:04.953Z,88.28
2022-12-03T08:28:32.646Z,88.03
2022-12-03T08:31:00.141Z,87.80
2022-12-03T08:33:27.749Z,88.22
2022-12-03T08:35:55.143Z,88.14
2022-12-03T08:38:28.183Z,87.91
2022-12-03T08:40:55.556Z,88.10
2022-12-03T08:43:22.953Z,87.99
2022-12-03T08:45:50.443Z,87.88
2022-12-03T08:51:19.718Z,87.95
2022-12-03T08:53:47.119Z,87.95
2022-12-03T08:56:14.703Z,88.00
2022-12-03T08:58:42.350Z,87.77
2022-12-03T09:01:09.929Z,87.53
2022-12-03T09:03:37.500Z,87.54
2022-12-03T09:06:05.021Z,87.54
2022-12-03T09:08:32.531Z,87.50
2022-12-03T09:11:00.016Z,87.44
2022-12-03T09:13:27.385Z,87.51
2022-12-03T09:15:54.971Z,87.22
2022-12-03T09:18:22.359Z,87.01
2022-12-03T09:20:49.830Z,87.11
2022-12-03T09:23:17.227Z,86.64
2022-12-03T09:25:44.822Z,86.33
2022-12-03T09:28:12.499Z,86.13
2022-12-03T09:30:40.150Z,86.26
2022-12-03T09:33:07.699Z,86.13
2022-12-03T09:35:35.096Z,85.84
2022-12-03T09:38:02.723Z,85.67
2022-12-03T09:40:30.368Z,85.59
2022-12-03T09:42:57.863Z,85.72
2022-12-03T09:45:25.521Z,85.46
2022-12-03T09:47:53.001Z,85.44
2022-12-03T09:50:20.411Z,85.59
2022-12-03T09:52:47.921Z,85.47
2022-12-03T09:55:15.323Z,85.61
2022-12-03T09:57:42.854Z,85.72
2022-12-03T10:00:10.337Z,85.76
2022-12-03T10:02:37.828Z,85.82
2022-12-03T10:05:05.508Z,85.76
2022-12-03T10:07:33.072Z,85.80
2022-12-03T10:10:01.017Z,85.78
2022-12-03T10:12:28.439Z,85.72
2022-12-03T10:14:57.116Z,85.47
2022-12-03T10:17:25.176Z,85.40
2022-12-03T10:19:52.883Z,85.47
2022-12-03T10:22:20.561Z,85.39
2022-12-03T10:24:47.992Z,85.42
2022-12-03T10:27:15.494Z,85.66
2022-12-03T10:32:28.255Z,85.23
2022-12-03T10:37:41.003Z,84.88
2022-12-03T10:40:08.418Z,85.13
2022-12-03T10:42:35.956Z,85.11
2022-12-03T10:45:03.386Z,85.08
2022-12-03T10:47:31.350Z,84.87
2022-12-03T10:49:58.981Z,84.89
2022-12-03T10:52:26.528Z,85.05
2022-12-03T10:54:57.064Z,85.24
2022-12-03T10:57:24.790Z,85.16
2022-12-03T10:59:52.217Z,84.98
2022-12-03T11:02:19.627Z,84.79
2022-12-03T11:04:49.956Z,84.69
2022-12-03T11:10:02.395Z,84.83
2022-12-03T11:12:29.789Z,84.61
2022-12-03T11:14:57.427Z,84.46
2022-12-03T11:17:25.060Z,84.31
2022-12-03T11:19:52.453Z,84.26
2022-12-03T11:25:05.013Z,83.83
2022-12-03T11:27:32.895Z,83.62
2022-12-03T11:30:00.605Z,83.75
2022-12-03T11:35:13.421Z,83.98
2022-12-03T11:37:40.883Z,83.78
2022-12-03T11:40:08.531Z,83.81
2022-12-03T11:45:21.604Z,83.64
2022-12-03T11:47:49.154Z,83.45
2022-12-03T11:50:16.564Z,83.70
2022-12-03T11:52:43.977Z,83.95
2022-12-03T11:55:11.376Z,84.03
2022-12-03T12:00:24.230Z,83.76
2022-12-03T12:02:51.785Z,83.52
2022-12-03T12:05:19.388Z,83.64
2022-12-03T12:07:46.828Z,83.73
2022-12-03T12:10:14.289Z,83.76
2022-12-03T12:12:45.565Z,83.82
2022-12-03T12:15:16.716Z,83.86
2022-12-03T12:17:44.111Z,83.85
2022-12-03T12:20:11.513Z,83.90
2022-12-03T12:22:38.880Z,84.02
2022-12-03T12:25:06.536Z,83.76
2022-12-03T12:27:34.190Z,83.59
2022-12-03T12:30:01.721Z,83.91
2022-12-03T12:32:29.731Z,84.11
2022-12-03T12:34:57.463Z,84.22
2022-12-03T12:37:24.943Z,84.22
2022-12-03T12:39:53.049Z,84.03
2022-12-03T12:42:20.724Z,84.17
2022-12-03T12:44:51.247Z,84.27
2022-12-03T12:47:18.812Z,84.43
2022-12-03T12:49:51.592Z,84.71
2022-12-03T12:52:19.635Z,84.90
2022-12-03T12:54:47.151Z,85.21
2022-12-03T12:57:14.592Z,85.28
2022-12-03T12:59:42.053Z,85.52
2022-12-03T13:02:10.363Z,85.71
2022-12-03T13:04:38.296Z,85.63
2022-12-03T13:07:05.971Z,85.86
2022-12-03T13:09:33.614Z,85.74
2022-12-03T13:12:01.127Z,85.89
2022-12-03T13:14:28.628Z,85.91
2022-12-03T13:16:56.248Z,85.75
2022-12-03T13:19:24.145Z,85.95
2022-12-03T13:21:52.016Z,86.01
2022-12-03T13:24:19.642Z,85.65
2022-12-03T13:26:47.384Z,85.91
2022-12-03T13:29:14.873Z,85.90
2022-12-03T13:31:44.356Z,85.85
2022-12-03T13:34:12.378Z,85.49
2022-12-03T13:36:39.910Z,85.50
2022-12-03T13:39:07.493Z,85.62
2022-12-03T13:41:35.141Z,85.79
2022-12-03T13:44:02.876Z,85.83
2022-12-03T13:49:15.245Z,85.94
2022-12-03T13:51:42.722Z,85.88
2022-12-03T13:54:14.433Z,85.79
2022-12-03T13:56:43.635Z,85.88
2022-12-03T13:59:11.516Z,85.80
2022-12-03T14:04:51.352Z,86.20
2022-12-03T14:07:20.742Z,86.17
2022-12-03T14:09:48.265Z,86.22
2022-12-03T14:12:16.127Z,86.37
2022-12-03T14:14:46.217Z,86.46
2022-12-03T14:17:13.632Z,86.68
2022-12-03T14:19:41.400Z,86.67
2022-12-03T14:22:09.763Z,86.69
2022-12-03T14:24:37.322Z,86.71
2022-12-03T14:27:04.693Z,86.55
2022-12-03T14:29:32.549Z,86.68
2022-12-03T14:32:00.272Z,86.58
2022-12-03T14:34:27.943Z,86.70
2022-12-03T14:36:55.495Z,86.76
2022-12-03T14:39:22.996Z,86.77
2022-12-03T14:41:50.394Z,86.81
2022-12-03T14:44:18.027Z,86.64
2022-12-03T14:46:45.657Z,86.71
2022-12-03T14:49:13.234Z,86.99
2022-12-03T14:51:40.833Z,87.00
2022-12-03T14:54:08.507Z,87.09
2022-12-03T14:56:36.033Z,87.18
2022-12-03T14:59:03.516Z,87.11
2022-12-03T15:01:31.323Z,87.06
2022-12-03T15:03:59.216Z,87.23
2022-12-03T15:06:27.112Z,87.19
2022-12-03T15:08:54.813Z,87.35
2022-12-03T15:11:22.273Z,87.50
2022-12-03T15:13:49.737Z,87.69
2022-12-03T15:16:17.215Z,87.68
2022-12-03T15:18:44.956Z,87.67
2022-12-03T15:21:12.694Z,87.77
2022-12-03T15:23:40.644Z,87.64
2022-12-03T15:26:08.340Z,87.76
2022-12-03T15:28:35.810Z,87.84
2022-12-03T15:31:03.307Z,87.86
2022-12-03T15:33:31.036Z,87.82
2022-12-03T15:35:58.820Z,88.08
2022-12-03T15:38:26.212Z,88.11
2022-12-03T15:40:53.735Z,88.13
2022-12-03T15:43:21.487Z,88.18
2022-12-03T15:45:49.248Z,88.17
2022-12-03T15:48:16.979Z,88.14
2022-12-03T15:50:44.619Z,88.17
2022-12-03T15:53:12.362Z,88.26
2022-12-03T15:55:39.730Z,88.28
2022-12-03T15:58:07.587Z,88.43
2022-12-03T16:00:34.997Z,88.23
2022-12-03T16:03:02.880Z,88.15
2022-12-03T16:05:30.424Z,88.26
2022-12-03T16:07:57.999Z,88.30
2022-12-03T16:10:42.325Z,88.29
2022-12-03T16:13:15.052Z,88.36
2022-12-03T16:15:42.571Z,88.38
2022-12-03T16:18:10.185Z,88.33
2022-12-03T16:20:37.708Z,88.44
2022-12-03T16:23:05.116Z,88.43
2022-12-03T16:28:14.037Z,88.68
2022-12-03T16:33:27.618Z,88.53
2022-12-03T16:35:55.622Z,88.54
2022-12-03T16:38:24.473Z,88.50
2022-12-03T16:40:52.295Z,88.42
2022-12-03T16:43:39.779Z,88.50
2022-12-03T16:46:07.713Z,88.54
2022-12-03T16:48:38.508Z,88.68
2022-12-03T16:51:06.112Z,88.57
2022-12-03T16:53:33.674Z,88.58
2022-12-03T16:56:01.178Z,88.52
2022-12-03T16:58:28.837Z,88.42
2022-12-03T17:00:56.251Z,88.27
2022-12-03T17:03:26.625Z,88.17
2022-12-03T17:05:56.749Z,88.12
2022-12-03T17:08:24.382Z,88.15
2022-12-03T17:10:52.112Z,88.04
2022-12-03T17:13:19.561Z,88.16
2022-12-03T17:15:47.147Z,88.21
2022-12-03T17:18:14.647Z,88.35
2022-12-03T17:20:42.424Z,88.49
2022-12-03T17:23:10.019Z,88.42
2022-12-03T17:25:37.413Z,88.66
2022-12-03T17:28:04.993Z,88.55
2022-12-03T17:30:32.898Z,88.35
2022-12-03T17:33:00.459Z,88.40
2022-12-03T17:35:28.191Z,88.40
2022-12-03T17:37:55.790Z,88.18
2022-12-03T17:40:23.533Z,88.12
2022-12-03T17:42:51.070Z,88.07
2022-12-03T17:45:18.529Z,88.13
2022-12-03T17:47:46.006Z,87.92
2022-12-03T17:50:13.395Z,87.86
2022-12-03T17:52:41.130Z,87.88
2022-12-03T17:55:12.810Z,87.88
2022-12-03T17:57:43.604Z,87.90
2022-12-03T18:00:11.208Z,88.04
2022-12-03T18:02:38.900Z,88.06
2022-12-03T18:05:06.332Z,88.08
2022-12-03T18:07:33.904Z,88.01
2022-12-03T18:10:01.568Z,87.87
2022-12-03T18:12:29.052Z,87.78
2022-12-03T18:14:56.736Z,87.95
2022-12-03T18:17:24.457Z,87.84
2022-12-03T18:19:53.186Z,87.98
2022-12-03T18:22:21.095Z,87.96
2022-12-03T18:24:51.486Z,87.91
2022-12-03T18:27:19.685Z,87.85
2022-12-03T18:29:47.257Z,87.85
2022-12-03T18:32:28.252Z,87.90
2022-12-03T18:34:56.642Z,87.73
2022-12-03T18:37:24.151Z,87.83
2022-12-03T18:39:52.003Z,87.66
2022-12-03T18:42:19.604Z,87.62
2022-12-03T18:44:49.787Z,87.59
2022-12-03T18:47:17.763Z,87.67
2022-12-03T18:49:45.607Z,87.54
2022-12-03T18:52:13.200Z,87.67
2022-12-03T18:54:40.843Z,87.64
2022-12-03T18:57:08.281Z,87.63
2022-12-03T18:59:36.220Z,87.62
2022-12-03T19:02:03.685Z,87.52
2022-12-03T19:04:31.315Z,87.45
2022-12-03T19:06:58.688Z,87.43
2022-12-03T19:09:26.623Z,87.60
2022-12-03T19:11:54.313Z,87.44
2022-12-03T19:14:22.023Z,87.58
2022-12-03T19:16:49.583Z,87.62
2022-12-03T19:19:17.395Z,87.43
2022-12-03T19:21:45.025Z,87.39
2022-12-03T19:24:27.774Z,87.51
2022-12-03T19:26:55.321Z,87.44
2022-12-03T19:29:22.763Z,87.53
2022-12-03T19:31:50.222Z,87.37
2022-12-03T19:34:17.671Z,87.43
2022-12-03T19:36:47.277Z,87.41
2022-12-03T19:39:14.758Z,87.34
2022-12-03T19:41:42.164Z,87.25
2022-12-03T19:44:11.178Z,87.21
2022-12-03T19:46:38.628Z,87.27
2022-12-03T19:49:06.166Z,87.18
2022-12-03T19:51:35.291Z,87.22
2022-12-03T19:54:03.189Z,87.18
2022-12-03T19:56:30.653Z,87.08
2022-12-03T19:58:58.180Z,87.06
2022-12-03T20:01:25.965Z,87.04
2022-12-03T20:03:53.997Z,87.06
2022-12-03T20:06:21.493Z,87.10
2022-12-03T20:08:48.900Z,87.12
2022-12-03T20:11:16.413Z,87.15
2022-12-03T20:13:43.957Z,87.18
2022-12-03T20:16:11.434Z,87.27
2022-12-03T20:18:38.977Z,87.21
2022-12-03T20:21:06.444Z,87.27
2022-12-03T20:23:33.991Z,87.35
2022-12-03T20:26:01.542Z,87.69
2022-12-03T20:28:28.927Z,87.94
2022-12-03T20:30:56.500Z,88.19
2022-12-03T20:33:23.915Z,88.45
2022-12-03T20:35:51.458Z,88.72
2022-12-03T20:38:18.936Z,89.40
2022-12-03T20:40:46.645Z,89.29
2022-12-03T20:43:14.011Z,89.55
2022-12-03T20:45:41.545Z,89.52
2022-12-03T20:48:09.020Z,89.84
2022-12-03T20:50:36.416Z,89.82
2022-12-03T20:53:23.605Z,89.94
2022-12-03T20:55:51.317Z,89.93
2022-12-03T20:58:18.842Z,89.80
2022-12-03T21:00:46.247Z,90.37
2022-12-03T21:03:13.694Z,90.15
2022-12-03T21:05:41.121Z,90.26
2022-12-03T21:08:08.646Z,90.17
2022-12-03T21:10:36.247Z,90.04
2022-12-03T21:13:03.722Z,90.04
2022-12-03T21:15:31.264Z,90.04
2022-12-03T21:17:58.734Z,90.06
2022-12-03T21:20:26.171Z,90.15
2022-12-03T21:22:53.546Z,90.21
2022-12-03T21:25:20.985Z,90.19
2022-12-03T21:27:48.359Z,90.20
2022-12-03T21:30:15.733Z,90.28
2022-12-03T21:32:43.227Z,90.30
2022-12-03T21:35:10.625Z,90.41
2022-12-03T21:37:38.005Z,90.23
2022-12-03T21:40:05.457Z,90.52
2022-12-03T21:42:35.573Z,90.63
2022-12-03T21:45:04.365Z,90.45
2022-12-03T21:47:37.002Z,90.49
2022-12-03T21:50:04.802Z,90.53
2022-12-03T21:52:32.228Z,90.54
2022-12-03T21:54:59.768Z,90.56
2022-12-03T21:57:27.285Z,90.96
2022-12-03T21:59:54.972Z,90.99
2022-12-03T22:02:22.747Z,90.90
2022-12-03T22:04:50.206Z,90.84
2022-12-03T22:07:17.635Z,90.99
2022-12-03T22:09:45.259Z,90.70
2022-12-03T22:12:12.881Z,90.72
2022-12-03T22:14:40.259Z,90.59
2022-12-03T22:17:07.678Z,90.71
2022-12-03T22:19:35.165Z,90.57
2022-12-03T22:22:02.756Z,90.50
2022-12-03T22:24:30.205Z,90.48
2022-12-03T22:26:57.701Z,90.43
2022-12-03T22:29:25.081Z,90.52
2022-12-03T22:31:52.485Z,90.35
2022-12-03T22:34:19.975Z,90.30
2022-12-03T22:36:47.380Z,90.71
2022-12-03T22:39:14.754Z,90.62
2022-12-03T22:41:42.174Z,90.51
2022-12-03T22:44:09.583Z,90.38
2022-12-03T22:46:37.062Z,90.34
2022-12-03T22:49:07.314Z,90.30
2022-12-03T22:51:35.239Z,90.33
2022-12-03T22:54:02.732Z,90.26
2022-12-03T22:56:30.168Z,90.16
2022-12-03T22:58:57.540Z,90.07
2022-12-03T23:01:25.037Z,90.01
2022-12-03T23:03:52.679Z,90.04
2022-12-03T23:06:20.088Z,90.01
2022-12-03T23:08:47.502Z,90.09
2022-12-03T23:11:14.903Z,90.08
2022-12-03T23:13:42.307Z,89.89
2022-12-03T23:16:09.819Z,89.90
2022-12-03T23:18:37.257Z,89.83
2022-12-03T23:21:04.642Z,89.84
2022-12-03T23:23:32.105Z,89.78
2022-12-03T23:25:59.496Z,89.82
2022-12-03T23:28:26.997Z,89.89
2022-12-03T23:30:54.449Z,89.72
2022-12-03T23:33:21.985Z,89.77
2022-12-03T23:35:49.524Z,89.81
2022-12-03T23:38:16.958Z,89.73
2022-12-03T23:40:47.993Z,89.86
2022-12-03T23:43:16.086Z,89.79
2022-12-03T23:45:43.548Z,89.71
2022-12-03T23:48:11.002Z,89.79
2022-12-03T23:50:38.470Z,89.63
2022-12-03T23:53:06.227Z,89.58
2022-12-03T23:55:33.628Z,89.61
2022-12-03T23:58:01.090Z,89.65
